createdAt,value
2023-03-06T00:01:01.283Z,97056.59
2023-03-06T00:03:28.625Z,97057.25
2023-03-06T00:05:57.895Z,97048.50
2023-03-06T00:08:26.605Z,97048.81
2023-03-06T00:10:54.430Z,97042.31
2023-03-06T00:13:22.699Z,97036.03
2023-03-06T00:15:50.217Z,97041.16
2023-03-06T00:18:17.339Z,97035.97
2023-03-06T00:20:44.695Z,97041.16
2023-03-06T00:23:12.262Z,97036.41
2023-03-06T00:25:43.756Z,97027.38
2023-03-06T00:28:12.335Z,97032.50
2023-03-06T00:30:39.995Z,97036.22
2023-03-06T00:33:07.497Z,97036.19
2023-03-06T00:35:34.475Z,97031.03
2023-03-06T00:38:01.436Z,97023.25
2023-03-06T00:40:28.452Z,97019.53
2023-03-06T00:42:55.842Z,97017.44
2023-03-06T00:45:23.438Z,97010.38
2023-03-06T00:47:50.477Z,97013.63
2023-03-06T00:50:17.591Z,97002.66
2023-03-06T00:52:44.543Z,97002.84
2023-03-06T00:55:12.195Z,96994.69
2023-03-06T00:57:39.159Z,96992.22
2023-03-06T01:00:07.710Z,96996.41
2023-03-06T01:02:35.360Z,96998.72
2023-03-06T01:05:03.044Z,96999.84
2023-03-06T01:07:33.986Z,97007.25
2023-03-06T01:10:01.340Z,97000.00
2023-03-06T01:12:28.310Z,96996.34
2023-03-06T01:14:55.207Z,96986.78
2023-03-06T01:17:22.194Z,96974.53
2023-03-06T01:19:49.635Z,96978.94
2023-03-06T01:22:16.627Z,96980.59
2023-03-06T01:24:43.946Z,96980.88
2023-03-06T01:27:10.884Z,96975.13
2023-03-06T01:29:37.861Z,96973.22
2023-03-06T01:32:05.186Z,96973.50
2023-03-06T01:34:32.539Z,96964.31
2023-03-06T01:36:59.497Z,96969.47
2023-03-06T01:39:28.562Z,96967.81
2023-03-06T01:41:55.890Z,96972.88
2023-03-06T01:44:23.277Z,96968.66
2023-03-06T01:46:50.601Z,96969.34
2023-03-06T01:49:29.451Z,96965.22
2023-03-06T01:52:05.623Z,96965.03
2023-03-06T01:54:42.335Z,96960.81
2023-03-06T01:57:15.380Z,96955.41
2023-03-06T01:59:43.402Z,96951.34
2023-03-06T02:02:12.823Z,96942.66
2023-03-06T02:04:42.603Z,96937.13
2023-03-06T02:07:10.433Z,96938.28
2023-03-06T02:09:38.724Z,96935.00
2023-03-06T02:12:16.727Z,96933.69
2023-03-06T02:14:44.835Z,96929.44
2023-03-06T02:17:14.585Z,96921.53
2023-03-06T02:20:20.304Z,96905.88
2023-03-06T02:23:21.482Z,96911.00
2023-03-06T02:25:51.638Z,96902.91
2023-03-06T02:28:24.999Z,96903.22
2023-03-06T02:30:55.693Z,96903.19
2023-03-06T02:33:27.997Z,96896.13
2023-03-06T02:36:03.955Z,96896.19
2023-03-06T02:38:50.321Z,96895.22
2023-03-06T02:41:19.971Z,96885.47
2023-03-06T02:43:49.277Z,96877.59
2023-03-06T02:46:16.405Z,96888.09
2023-03-06T02:48:43.662Z,96884.19
2023-03-06T02:51:10.616Z,96877.13
2023-03-06T02:53:37.953Z,96878.28
2023-03-06T02:56:05.083Z,96870.72
2023-03-06T02:58:32.078Z,96872.00
2023-03-06T03:00:59.499Z,96872.66
2023-03-06T03:03:26.645Z,96875.66
2023-03-06T03:05:54.250Z,96869.75
2023-03-06T03:08:25.626Z,96873.03
2023-03-06T03:10:57.099Z,96874.19
2023-03-06T03:13:25.683Z,96872.47
2023-03-06T03:16:07.352Z,96872.38
2023-03-06T03:18:35.197Z,96868.81
2023-03-06T03:21:02.990Z,96858.84
2023-03-06T03:23:30.333Z,96863.91
2023-03-06T03:26:10.931Z,96868.72
2023-03-06T03:28:41.797Z,96864.59
2023-03-06T03:31:11.600Z,96860.97
2023-03-06T03:33:40.767Z,96864.06
2023-03-06T03:36:08.807Z,96860.00
2023-03-06T03:38:40.296Z,96865.88
2023-03-06T03:41:07.252Z,96856.75
2023-03-06T03:43:34.704Z,96853.16
2023-03-06T03:46:02.045Z,96860.06
2023-03-06T03:48:29.593Z,96852.50
2023-03-06T03:51:09.127Z,96849.66
2023-03-06T03:53:39.824Z,96851.78
2023-03-06T03:56:08.888Z,96854.78
2023-03-06T03:58:43.167Z,96853.09
2023-03-06T04:01:10.428Z,96852.34
2023-03-06T04:03:37.747Z,96849.22
2023-03-06T04:06:07.157Z,96846.44
2023-03-06T04:08:35.415Z,96843.78
2023-03-06T04:11:03.294Z,96828.47
2023-03-06T04:13:32.378Z,96827.66
2023-03-06T04:16:00.159Z,96824.47
2023-03-06T04:18:29.532Z,96825.00
2023-03-06T04:21:00.842Z,96832.03
2023-03-06T04:23:28.064Z,96827.44
2023-03-06T04:25:55.944Z,96817.75
2023-03-06T04:28:23.709Z,96823.31
2023-03-06T04:30:51.318Z,96820.03
2023-03-06T04:33:20.040Z,96814.66
2023-03-06T04:35:47.522Z,96820.06
2023-03-06T04:38:20.411Z,96824.13
2023-03-06T04:40:49.572Z,96812.53
2023-03-06T04:43:16.964Z,96821.50
2023-03-06T04:45:44.013Z,96812.84
2023-03-06T04:48:15.382Z,96815.44
2023-03-06T04:50:42.536Z,96813.19
2023-03-06T04:53:10.937Z,96805.34
2023-03-06T04:55:38.443Z,96802.06
2023-03-06T04:58:05.673Z,96806.06
2023-03-06T05:00:32.972Z,96797.53
2023-03-06T05:03:01.808Z,96804.09
2023-03-06T05:05:29.317Z,96804.31
2023-03-06T05:07:56.992Z,96802.06
2023-03-06T05:10:24.143Z,96796.53
2023-03-06T05:12:51.611Z,96802.72
2023-03-06T05:15:19.238Z,96804.31
2023-03-06T05:17:47.506Z,96804.66
2023-03-06T05:20:15.830Z,96800.00
2023-03-06T05:22:43.564Z,96789.03
2023-03-06T05:25:10.917Z,96804.16
2023-03-06T05:27:38.585Z,96792.28
2023-03-06T05:30:06.720Z,96795.22
2023-03-06T05:32:35.553Z,96794.41
2023-03-06T05:35:03.728Z,96787.91
2023-03-06T05:37:31.160Z,96787.84
2023-03-06T05:39:58.180Z,96788.34
2023-03-06T05:42:27.627Z,96794.78
2023-03-06T05:44:56.033Z,96794.91
2023-03-06T05:47:23.122Z,96785.47
2023-03-06T05:49:50.534Z,96792.97
2023-03-06T05:52:17.971Z,96791.66
2023-03-06T05:54:50.011Z,96780.84
2023-03-06T05:57:18.687Z,96787.91
2023-03-06T05:59:46.479Z,96785.94
2023-03-06T06:02:13.558Z,96790.50
2023-03-06T06:04:40.483Z,96783.28
2023-03-06T06:07:07.553Z,96785.25
2023-03-06T06:09:34.841Z,96788.88
2023-03-06T06:12:03.756Z,96788.50
2023-03-06T06:14:33.504Z,96792.94
2023-03-06T06:17:00.672Z,96788.50
2023-03-06T06:19:31.537Z,96792.34
2023-03-06T06:21:58.845Z,96787.91
2023-03-06T06:24:27.094Z,96785.44
2023-03-06T06:26:56.426Z,96786.75
2023-03-06T06:29:24.741Z,96793.91
2023-03-06T06:31:52.222Z,96793.94
2023-03-06T06:34:19.900Z,96791.63
2023-03-06T06:36:47.474Z,96801.44
2023-03-06T06:39:17.392Z,96790.63
2023-03-06T06:42:02.386Z,96788.19
2023-03-06T06:44:32.853Z,96787.84
2023-03-06T06:47:21.834Z,96789.31
2023-03-06T06:49:54.273Z,96790.75
2023-03-06T06:52:22.049Z,96782.59
2023-03-06T06:54:49.052Z,96788.53
2023-03-06T06:57:16.594Z,96792.94
2023-03-06T06:59:43.586Z,96794.75
2023-03-06T07:02:13.488Z,96798.53
2023-03-06T07:04:52.272Z,96801.41
2023-03-06T07:07:28.044Z,96804.00
2023-03-06T07:09:56.000Z,96799.25
2023-03-06T07:12:23.075Z,96801.13
2023-03-06T07:14:49.962Z,96802.56
2023-03-06T07:17:16.875Z,96797.69
2023-03-06T07:19:44.117Z,96793.44
2023-03-06T07:22:11.492Z,96792.78
2023-03-06T07:24:38.811Z,96799.78
2023-03-06T07:27:06.165Z,96800.38
2023-03-06T07:29:34.461Z,96805.16
2023-03-06T07:32:01.934Z,96809.44
2023-03-06T07:34:29.573Z,96809.75
2023-03-06T07:36:56.493Z,96809.13
2023-03-06T07:39:23.501Z,96807.50
2023-03-06T07:41:52.052Z,96815.91
2023-03-06T07:44:19.031Z,96813.59
2023-03-06T07:46:46.410Z,96810.53
2023-03-06T07:49:13.802Z,96819.94
2023-03-06T07:51:41.068Z,96825.94
2023-03-06T07:54:08.125Z,96832.63
2023-03-06T07:56:35.519Z,96827.13
2023-03-06T07:59:02.543Z,96828.06
2023-03-06T08:01:29.580Z,96834.28
2023-03-06T08:03:57.027Z,96836.66
2023-03-06T08:06:27.426Z,96825.78
2023-03-06T08:08:55.876Z,96822.31
2023-03-06T08:11:26.307Z,96831.63
2023-03-06T08:13:54.177Z,96834.66
2023-03-06T08:16:28.825Z,96828.09
2023-03-06T08:18:56.766Z,96830.34
2023-03-06T08:21:26.616Z,96814.34
2023-03-06T08:23:54.459Z,96823.69
2023-03-06T08:26:28.935Z,96830.81
2023-03-06T08:28:58.243Z,96820.47
2023-03-06T08:31:40.611Z,96830.06
2023-03-06T08:34:20.653Z,96827.03
2023-03-06T08:36:47.782Z,96830.81
2023-03-06T08:39:15.145Z,96835.91
2023-03-06T08:41:42.375Z,96832.59
2023-03-06T08:44:10.065Z,96838.72
2023-03-06T08:46:37.605Z,96833.81
2023-03-06T08:49:05.144Z,96837.25
2023-03-06T08:51:34.786Z,96833.94
2023-03-06T08:54:01.684Z,96827.09
2023-03-06T08:56:34.141Z,96836.59
2023-03-06T08:59:03.928Z,96833.63
2023-03-06T09:01:36.686Z,96834.88
2023-03-06T09:04:10.531Z,96840.47
2023-03-06T09:06:42.453Z,96841.84
2023-03-06T09:09:09.872Z,96849.94
2023-03-06T09:11:37.241Z,96847.34
2023-03-06T09:14:05.672Z,96841.28
2023-03-06T09:16:33.256Z,96843.81
2023-03-06T09:19:00.640Z,96850.09
2023-03-06T09:21:28.590Z,96847.97
2023-03-06T09:23:55.720Z,96848.63
2023-03-06T09:26:27.950Z,96839.19
2023-03-06T09:28:59.984Z,96841.00
2023-03-06T09:31:26.864Z,96847.97
2023-03-06T09:33:53.764Z,96843.00
2023-03-06T09:36:22.376Z,96833.34
2023-03-06T09:38:49.946Z,96843.03
2023-03-06T09:41:44.757Z,96833.00
2023-03-06T09:44:23.764Z,96841.88
2023-03-06T09:47:15.763Z,96848.34
2023-03-06T09:50:12.082Z,96842.38
2023-03-06T09:53:38.909Z,96835.25
2023-03-06T09:56:31.083Z,96843.00
2023-03-06T09:59:12.740Z,96844.13
2023-03-06T10:01:45.225Z,96843.50
2023-03-06T10:04:32.808Z,96843.41
2023-03-06T10:07:22.791Z,96846.25
2023-03-06T10:09:57.238Z,96844.34
2023-03-06T10:12:48.315Z,96848.56
2023-03-06T10:15:25.130Z,96853.72
2023-03-06T10:17:52.439Z,96861.03
2023-03-06T10:20:48.738Z,96853.84
2023-03-06T10:23:53.498Z,96848.41
2023-03-06T10:26:26.212Z,96856.69
2023-03-06T10:29:21.724Z,96852.78
2023-03-06T10:31:58.311Z,96858.03
2023-03-06T10:34:32.840Z,96859.28
2023-03-06T10:37:05.977Z,96850.44
2023-03-06T10:39:33.225Z,96852.59
2023-03-06T10:42:00.501Z,96849.09
2023-03-06T10:44:27.837Z,96837.47
2023-03-06T10:46:55.076Z,96848.06
2023-03-06T10:49:37.712Z,96853.44
2023-03-06T10:52:22.118Z,96847.44
2023-03-06T10:54:49.424Z,96846.97
2023-03-06T10:57:28.321Z,96849.72
2023-03-06T11:00:06.779Z,96859.91
2023-03-06T11:02:37.197Z,96853.09
2023-03-06T11:05:05.755Z,96861.47
2023-03-06T11:07:37.267Z,96847.22
2023-03-06T11:10:19.315Z,96844.13
2023-03-06T11:13:16.139Z,96846.47
2023-03-06T11:16:26.926Z,96836.78
2023-03-06T11:18:59.412Z,96834.28
2023-03-06T11:21:34.406Z,96840.56
2023-03-06T11:24:08.250Z,96839.84
2023-03-06T11:26:43.125Z,96826.91
2023-03-06T11:29:40.690Z,96830.75
2023-03-06T11:32:14.470Z,96828.66
2023-03-06T11:35:05.170Z,96826.81
2023-03-06T11:37:32.373Z,96823.50
2023-03-06T11:40:28.468Z,96821.53
2023-03-06T11:43:17.191Z,96816.59
2023-03-06T11:46:10.758Z,96812.19
2023-03-06T11:48:47.958Z,96814.81
2023-03-06T11:51:23.384Z,96805.00
2023-03-06T11:53:50.324Z,96804.25
2023-03-06T11:56:20.598Z,96794.53
2023-03-06T11:59:26.023Z,96790.13
2023-03-06T12:02:39.194Z,96784.97
2023-03-06T12:05:39.296Z,96786.81
2023-03-06T12:08:28.671Z,96776.69
2023-03-06T12:11:10.384Z,96777.78
2023-03-06T12:14:07.009Z,96789.38
2023-03-06T12:16:52.534Z,96775.28
2023-03-06T12:19:57.510Z,96764.75
2023-03-06T12:23:14.149Z,96766.91
2023-03-06T12:25:59.636Z,96764.28
2023-03-06T12:28:55.010Z,96773.56
2023-03-06T12:32:17.635Z,96763.88
2023-03-06T12:35:30.793Z,96765.97
2023-03-06T12:38:12.734Z,96761.88
2023-03-06T12:40:47.560Z,96761.97
2023-03-06T12:43:42.154Z,96759.16
2023-03-06T12:46:17.024Z,96761.41
2023-03-06T12:49:08.565Z,96764.44
2023-03-06T12:51:36.506Z,96766.19
2023-03-06T12:54:03.924Z,96761.16
2023-03-06T12:56:32.356Z,96763.63
2023-03-06T12:59:03.195Z,96762.69
2023-03-06T13:01:42.561Z,96761.41
2023-03-06T13:04:36.611Z,96760.50
2023-03-06T13:07:14.173Z,96753.63
2023-03-06T13:10:25.809Z,96749.81
2023-03-06T13:13:01.989Z,96751.09
2023-03-06T13:15:46.040Z,96747.88
2023-03-06T13:18:22.047Z,96750.16
2023-03-06T13:20:56.119Z,96752.03
2023-03-06T13:23:43.173Z,96756.50
2023-03-06T13:26:32.238Z,96749.03
2023-03-06T13:28:59.629Z,96760.56
2023-03-06T13:31:52.383Z,96750.19
2023-03-06T13:34:31.383Z,96748.63
2023-03-06T13:37:17.118Z,96737.03
2023-03-06T13:39:56.764Z,96741.38
2023-03-06T13:42:39.601Z,96749.53
2023-03-06T13:45:27.301Z,96747.63
2023-03-06T13:48:33.896Z,96749.44
2023-03-06T13:50:46.834Z,96743.03
2023-03-06T13:53:51.214Z,96747.25
2023-03-06T13:57:23.452Z,96732.97
2023-03-06T14:00:11.898Z,96736.59
2023-03-06T14:02:55.839Z,96734.41
2023-03-06T14:05:23.673Z,96736.78
2023-03-06T14:08:10.741Z,96731.22
2023-03-06T14:10:39.263Z,96729.38
2023-03-06T14:13:30.015Z,96725.63
2023-03-06T14:15:59.333Z,96726.03
2023-03-06T14:18:40.139Z,96716.84
2023-03-06T14:21:13.441Z,96722.34
2023-03-06T14:23:44.816Z,96720.94
2023-03-06T14:26:19.431Z,96723.09
2023-03-06T14:28:52.340Z,96717.72
2023-03-06T14:31:23.626Z,96720.00
2023-03-06T14:33:57.486Z,96709.31
2023-03-06T14:36:48.530Z,96714.34
2023-03-06T14:39:20.804Z,96708.44
2023-03-06T14:41:47.786Z,96709.97
2023-03-06T14:44:24.357Z,96717.56
2023-03-06T14:46:58.474Z,96718.94
2023-03-06T14:49:26.613Z,96713.13
2023-03-06T14:51:56.396Z,96712.75
2023-03-06T14:54:37.005Z,96714.13
2023-03-06T14:57:13.835Z,96709.41
2023-03-06T14:59:58.062Z,96711.56
2023-03-06T15:02:32.766Z,96713.50
2023-03-06T15:05:06.447Z,96709.59
2023-03-06T15:07:33.890Z,96709.16
2023-03-06T15:10:01.393Z,96709.78
2023-03-06T15:12:31.017Z,96706.16
2023-03-06T15:15:18.322Z,96708.69
2023-03-06T15:17:48.818Z,96709.88
2023-03-06T15:20:54.081Z,96697.53
2023-03-06T15:23:40.072Z,96700.16
2023-03-06T15:26:38.337Z,96702.53
2023-03-06T15:29:24.944Z,96691.38
2023-03-06T15:31:52.081Z,96699.50
2023-03-06T15:34:24.736Z,96697.41
2023-03-06T15:36:57.836Z,96702.63
2023-03-06T15:39:46.410Z,96699.84
2023-03-06T15:42:25.017Z,96693.56
2023-03-06T15:45:05.602Z,96694.19
2023-03-06T15:47:32.993Z,96692.53
2023-03-06T15:49:59.884Z,96695.72
2023-03-06T15:52:27.321Z,96702.78
2023-03-06T15:54:54.862Z,96705.63
2023-03-06T15:57:29.279Z,96698.41
2023-03-06T15:59:57.533Z,96696.16
2023-03-06T16:02:24.937Z,96702.00
2023-03-06T16:04:52.884Z,96693.03
2023-03-06T16:07:20.764Z,96706.88
2023-03-06T16:09:48.122Z,96704.25
2023-03-06T16:12:20.980Z,96708.44
2023-03-06T16:14:48.929Z,96714.84
2023-03-06T16:17:17.344Z,96711.03
2023-03-06T16:19:44.586Z,96714.00
2023-03-06T16:22:11.841Z,96717.81
2023-03-06T16:24:39.033Z,96723.47
2023-03-06T16:27:06.889Z,96722.13
2023-03-06T16:29:35.036Z,96733.28
2023-03-06T16:32:02.726Z,96736.84
2023-03-06T16:34:29.698Z,96737.16
2023-03-06T16:36:56.796Z,96745.16
2023-03-06T16:39:24.634Z,96745.25
2023-03-06T16:41:52.351Z,96747.34
2023-03-06T16:44:20.679Z,96741.03
2023-03-06T16:46:50.160Z,96746.44
2023-03-06T16:49:26.407Z,96751.63
2023-03-06T16:51:54.746Z,96748.69
2023-03-06T16:54:24.143Z,96763.00
2023-03-06T16:56:51.723Z,96760.75
2023-03-06T16:59:18.853Z,96753.22
2023-03-06T17:01:46.241Z,96754.16
2023-03-06T17:04:13.304Z,96748.59
2023-03-06T17:06:41.849Z,96750.34
2023-03-06T17:09:10.895Z,96753.44
2023-03-06T17:11:45.647Z,96761.97
2023-03-06T17:14:13.042Z,96758.03
2023-03-06T17:16:40.668Z,96765.28
2023-03-06T17:19:08.242Z,96761.41
2023-03-06T17:21:37.315Z,96763.88
2023-03-06T17:24:05.304Z,96765.97
2023-03-06T17:26:32.718Z,96766.44
2023-03-06T17:28:59.625Z,96768.91
2023-03-06T17:31:28.359Z,96772.69
2023-03-06T17:34:00.264Z,96785.69
2023-03-06T17:36:28.887Z,96777.75
2023-03-06T17:38:57.507Z,96778.78
2023-03-06T17:41:24.947Z,96789.16
2023-03-06T17:43:55.060Z,96773.44
2023-03-06T17:46:22.493Z,96788.50
2023-03-06T17:48:49.926Z,96802.41
2023-03-06T17:51:16.844Z,96793.03
2023-03-06T17:53:43.794Z,96792.84
2023-03-06T17:56:14.055Z,96791.16
2023-03-06T17:58:41.431Z,96794.63
2023-03-06T18:01:19.276Z,96800.59
2023-03-06T18:03:49.766Z,96804.50
2023-03-06T18:06:18.154Z,96803.56
2023-03-06T18:08:46.524Z,96791.75
2023-03-06T18:11:14.377Z,96801.00
2023-03-06T18:13:43.997Z,96800.47
2023-03-06T18:16:13.736Z,96787.53
2023-03-06T18:18:41.435Z,96796.16
2023-03-06T18:21:13.744Z,96793.28
2023-03-06T18:23:41.353Z,96793.53
2023-03-06T18:26:15.784Z,96793.31
2023-03-06T18:28:47.242Z,96791.81
2023-03-06T18:31:27.870Z,96793.63
2023-03-06T18:34:00.417Z,96804.03
2023-03-06T18:36:31.491Z,96793.59
2023-03-06T18:38:59.231Z,96797.94
2023-03-06T18:41:26.301Z,96804.88
2023-03-06T18:43:55.243Z,96802.06
2023-03-06T18:46:23.577Z,96795.44
2023-03-06T18:48:50.959Z,96797.63
2023-03-06T18:51:19.482Z,96799.78
2023-03-06T18:53:46.608Z,96795.34
2023-03-06T18:56:20.384Z,96792.75
2023-03-06T18:58:48.314Z,96796.19
2023-03-06T19:01:15.271Z,96798.78
2023-03-06T19:03:42.608Z,96799.97
2023-03-06T19:06:12.388Z,96789.06
2023-03-06T19:08:40.738Z,96792.94
2023-03-06T19:11:15.055Z,96788.00
2023-03-06T19:13:43.286Z,96789.16
2023-03-06T19:16:18.593Z,96795.66
2023-03-06T19:18:46.003Z,96797.09
2023-03-06T19:21:19.750Z,96792.03
2023-03-06T19:23:47.363Z,96784.59
2023-03-06T19:26:15.478Z,96782.28
2023-03-06T19:28:43.489Z,96791.38
2023-03-06T19:31:24.797Z,96783.28
2023-03-06T19:33:53.267Z,96782.81
2023-03-06T19:36:27.360Z,96792.28
2023-03-06T19:38:55.704Z,96787.97
2023-03-06T19:41:23.166Z,96790.66
2023-03-06T19:43:53.255Z,96785.25
2023-03-06T19:46:21.769Z,96778.06
2023-03-06T19:48:53.769Z,96785.25
2023-03-06T19:51:20.768Z,96786.75
2023-03-06T19:53:50.902Z,96782.16
2023-03-06T19:56:27.204Z,96781.97
2023-03-06T19:58:54.612Z,96790.34
2023-03-06T20:01:24.691Z,96790.72
2023-03-06T20:03:58.776Z,96782.97
2023-03-06T20:06:33.673Z,96789.63
2023-03-06T20:09:03.312Z,96792.28
2023-03-06T20:11:30.437Z,96790.16
2023-03-06T20:13:59.166Z,96792.28
2023-03-06T20:16:30.162Z,96788.72
2023-03-06T20:19:00.147Z,96789.16
2023-03-06T20:21:30.208Z,96788.69
2023-03-06T20:23:58.177Z,96788.38
2023-03-06T20:26:28.394Z,96782.50
2023-03-06T20:28:55.900Z,96783.44
2023-03-06T20:31:26.716Z,96790.69
2023-03-06T20:33:55.403Z,96776.59
2023-03-06T20:36:27.687Z,96784.47
2023-03-06T20:38:55.350Z,96782.59
2023-03-06T20:41:28.180Z,96772.44
2023-03-06T20:43:55.244Z,96782.97
2023-03-06T20:46:23.521Z,96766.06
2023-03-06T20:48:52.328Z,96768.75
2023-03-06T20:51:28.606Z,96770.13
2023-03-06T20:53:55.909Z,96765.28
2023-03-06T20:56:27.096Z,96780.53
2023-03-06T20:58:54.280Z,96766.56
2023-03-06T21:01:28.988Z,96760.72
2023-03-06T21:03:57.393Z,96765.66
2023-03-06T21:06:25.615Z,96768.44
2023-03-06T21:08:52.705Z,96764.81
2023-03-06T21:11:19.654Z,96764.19
2023-03-06T21:13:46.592Z,96761.66
2023-03-06T21:16:16.825Z,96763.88
2023-03-06T21:18:44.672Z,96759.06
2023-03-06T21:21:18.415Z,96750.25
2023-03-06T21:23:46.687Z,96747.06
2023-03-06T21:26:20.146Z,96740.88
2023-03-06T21:28:47.810Z,96735.88
2023-03-06T21:31:17.566Z,96732.81
2023-03-06T21:33:45.531Z,96730.25
2023-03-06T21:36:13.035Z,96724.78
2023-03-06T21:38:40.618Z,96722.47
2023-03-06T21:41:17.180Z,96726.84
2023-03-06T21:43:44.421Z,96720.28
2023-03-06T21:46:12.133Z,96728.88
2023-03-06T21:48:39.552Z,96726.59
2023-03-06T21:51:11.043Z,96723.00
2023-03-06T21:53:41.056Z,96714.91
2023-03-06T21:56:09.406Z,96710.88
2023-03-06T21:58:37.074Z,96720.59
2023-03-06T22:01:17.009Z,96711.53
2023-03-06T22:03:43.955Z,96726.06
2023-03-06T22:06:14.141Z,96722.19
2023-03-06T22:08:42.126Z,96715.97
2023-03-06T22:11:12.431Z,96722.19
2023-03-06T22:13:40.018Z,96711.13
2023-03-06T22:16:08.139Z,96709.97
2023-03-06T22:18:36.218Z,96698.56
2023-03-06T22:21:10.901Z,96699.72
2023-03-06T22:23:38.374Z,96699.41
2023-03-06T22:26:08.705Z,96696.06
2023-03-06T22:28:36.129Z,96701.94
2023-03-06T22:31:19.439Z,96693.31
2023-03-06T22:33:46.905Z,96689.41
2023-03-06T22:36:16.185Z,96698.56
2023-03-06T22:38:45.272Z,96688.84
2023-03-06T22:41:15.154Z,96691.00
2023-03-06T22:43:42.986Z,96695.56
2023-03-06T22:46:17.009Z,96700.97
2023-03-06T22:48:44.842Z,96695.47
2023-03-06T22:51:16.584Z,96703.88
2023-03-06T22:53:44.251Z,96703.88
2023-03-06T22:56:15.111Z,96689.69
2023-03-06T22:58:44.712Z,96701.44
2023-03-06T23:01:15.168Z,96690.19
2023-03-06T23:03:45.426Z,96695.53
2023-03-06T23:06:24.885Z,96692.56
2023-03-06T23:09:03.480Z,96693.19
2023-03-06T23:11:31.426Z,96690.81
2023-03-06T23:14:18.868Z,96682.06
2023-03-06T23:17:04.777Z,96688.81
2023-03-06T23:19:50.328Z,96683.38
2023-03-06T23:22:36.047Z,96685.59
2023-03-06T23:25:22.230Z,96683.78
2023-03-06T23:27:49.139Z,96672.13
2023-03-06T23:30:16.145Z,96681.41
2023-03-06T23:32:45.733Z,96675.47
2023-03-06T23:35:13.696Z,96673.41
2023-03-06T23:37:40.883Z,96666.34
2023-03-06T23:40:09.549Z,96666.97
2023-03-06T23:42:36.956Z,96665.16
2023-03-06T23:45:04.325Z,96665.97
2023-03-06T23:47:33.113Z,96658.41
2023-03-06T23:50:00.056Z,96660.03
2023-03-06T23:52:27.244Z,96660.16
2023-03-06T23:54:54.282Z,96662.56
2023-03-06T23:57:21.630Z,96660.03
2023-03-06T23:59:48.922Z,96658.31
